createdAt,value
2022-11-08T00:00:11.778Z,0.60
2022-11-08T00:02:41.754Z,0.80
2022-11-08T00:05:30.578Z,0.80
2022-11-08T00:08:15.680Z,0.90
2022-11-08T00:11:01.122Z,1.00
2022-11-08T00:13:46.089Z,1.00
2022-11-08T00:16:12.575Z,0.77
2022-11-08T00:18:42.138Z,0.80
2022-11-08T00:21:09.993Z,0.95
2022-11-08T00:23:36.474Z,0.90
2022-11-08T00:26:03.038Z,1.15
2022-11-08T00:28:29.536Z,1.20
2022-11-08T00:30:56.029Z,1.30
2022-11-08T00:33:22.504Z,0.90
2022-11-08T00:35:49.007Z,0.90
2022-11-08T00:38:15.882Z,0.73
2022-11-08T00:40:42.536Z,0.80
2022-11-08T00:43:11.210Z,0.98
2022-11-08T00:48:21.711Z,1.00
2022-11-08T00:50:48.223Z,0.90
2022-11-08T00:53:14.802Z,0.70
2022-11-08T00:55:44.445Z,0.50
2022-11-08T00:58:12.309Z,0.80
2022-11-08T01:00:38.808Z,0.80
2022-11-08T01:03:20.397Z,0.88
2022-11-08T01:05:48.585Z,0.60
2022-11-08T01:08:17.019Z,0.73
2022-11-08T01:10:46.180Z,0.90
2022-11-08T01:13:15.831Z,0.70
2022-11-08T01:15:46.049Z,1.10
2022-11-08T01:18:17.084Z,0.80
2022-11-08T01:20:49.321Z,0.77
2022-11-08T01:23:17.471Z,1.08
2022-11-08T01:25:49.918Z,0.70
2022-11-08T01:28:17.284Z,0.60
2022-11-08T01:30:45.235Z,0.50
2022-11-08T01:33:14.655Z,0.82
2022-11-08T01:35:45.499Z,0.60
2022-11-08T01:38:14.953Z,0.65
2022-11-08T01:40:45.609Z,0.75
2022-11-08T01:43:30.412Z,0.60
2022-11-08T01:46:18.897Z,0.52
2022-11-08T01:49:18.925Z,0.70
2022-11-08T01:51:58.306Z,0.60
2022-11-08T01:55:03.710Z,0.60
2022-11-08T01:57:38.783Z,0.70
2022-11-08T02:00:10.270Z,0.52
2022-11-08T02:02:38.804Z,1.05
2022-11-08T02:05:24.694Z,0.70
2022-11-08T02:07:57.650Z,0.55
2022-11-08T02:10:29.602Z,0.80
2022-11-08T02:12:56.284Z,0.75
2022-11-08T02:15:25.243Z,0.60
2022-11-08T02:17:53.429Z,0.70
2022-11-08T02:20:20.615Z,1.00
2022-11-08T02:23:10.238Z,0.55
2022-11-08T02:25:36.759Z,0.82
2022-11-08T02:28:03.577Z,0.80
2022-11-08T02:30:34.611Z,0.70
2022-11-08T02:33:01.370Z,0.70
2022-11-08T02:35:28.002Z,0.50
2022-11-08T02:37:54.588Z,0.57
2022-11-08T02:40:21.078Z,0.63
2022-11-08T02:42:50.760Z,0.95
2022-11-08T02:45:20.185Z,0.60
2022-11-08T02:47:47.035Z,0.60
2022-11-08T02:50:13.705Z,0.70
2022-11-08T02:52:40.222Z,0.60
2022-11-08T02:55:06.961Z,0.50
2022-11-08T02:57:33.528Z,0.80
2022-11-08T03:00:00.030Z,0.55
2022-11-08T03:02:26.743Z,0.70
2022-11-08T03:04:53.381Z,0.60
2022-11-08T03:07:24.948Z,0.90
2022-11-08T03:09:51.709Z,0.70
2022-11-08T03:12:20.245Z,0.98
2022-11-08T03:14:46.775Z,0.65
2022-11-08T03:17:13.282Z,0.63
2022-11-08T03:19:39.794Z,0.55
2022-11-08T03:22:06.310Z,0.40
2022-11-08T03:24:33.873Z,0.70
2022-11-08T03:27:00.375Z,0.60
2022-11-08T03:29:26.844Z,0.50
2022-11-08T03:31:53.331Z,0.73
2022-11-08T03:34:22.869Z,0.47
2022-11-08T03:36:52.330Z,0.55
2022-11-08T03:39:21.333Z,0.60
2022-11-08T03:41:47.810Z,0.55
2022-11-08T03:44:14.325Z,0.70
2022-11-08T03:46:40.840Z,0.73
2022-11-08T03:49:07.370Z,0.60
2022-11-08T03:51:33.865Z,0.40
2022-11-08T03:54:00.388Z,0.60
2022-11-08T03:56:26.921Z,0.60
2022-11-08T03:58:53.432Z,0.73
2022-11-08T04:01:22.144Z,0.70
2022-11-08T04:03:48.709Z,0.50
2022-11-08T04:06:15.216Z,0.68
2022-11-08T04:08:41.762Z,0.57
2022-11-08T04:11:26.534Z,0.70
2022-11-08T04:14:11.392Z,0.47
2022-11-08T04:16:38.017Z,0.70
2022-11-08T04:19:23.044Z,0.50
2022-11-08T04:21:53.214Z,0.85
2022-11-08T04:24:20.428Z,0.65
2022-11-08T04:26:47.252Z,0.68
2022-11-08T04:29:14.197Z,0.60
2022-11-08T04:31:40.811Z,0.52
2022-11-08T04:34:07.431Z,0.70
2022-11-08T04:36:34.061Z,0.60
2022-11-08T04:39:00.599Z,0.73
2022-11-08T04:41:27.253Z,0.60
2022-11-08T04:43:57.204Z,0.50
2022-11-08T04:46:28.446Z,0.80
2022-11-08T04:48:59.727Z,0.60
2022-11-08T04:51:31.867Z,0.60
2022-11-08T04:54:00.558Z,0.93
2022-11-08T04:56:29.391Z,0.60
2022-11-08T04:58:58.036Z,0.80
2022-11-08T05:01:30.489Z,0.85
2022-11-08T05:03:57.607Z,0.73
2022-11-08T05:06:27.705Z,0.93
2022-11-08T05:08:58.820Z,0.50
2022-11-08T05:11:35.440Z,0.68
2022-11-08T05:14:02.015Z,0.80
2022-11-08T05:16:31.035Z,0.68
2022-11-08T05:18:58.210Z,0.88
2022-11-08T05:21:43.814Z,0.77
2022-11-08T05:24:14.474Z,0.70
2022-11-08T05:26:45.081Z,1.10
2022-11-08T05:29:12.719Z,0.90
2022-11-08T05:31:39.475Z,0.60
2022-11-08T05:34:07.382Z,0.90
2022-11-08T05:36:33.999Z,1.10
2022-11-08T05:39:00.498Z,0.60
2022-11-08T05:41:30.069Z,0.90
2022-11-08T05:43:59.434Z,1.10
2022-11-08T05:46:29.252Z,1.00
2022-11-08T05:48:58.485Z,0.80
2022-11-08T05:51:25.078Z,1.20
2022-11-08T05:53:51.673Z,0.95
2022-11-08T05:56:18.589Z,0.80
2022-11-08T05:58:45.616Z,0.80
2022-11-08T06:01:15.391Z,0.75
2022-11-08T06:03:42.254Z,1.10
2022-11-08T06:06:18.449Z,0.98
2022-11-08T06:08:49.983Z,0.80
2022-11-08T06:11:19.701Z,1.17
2022-11-08T06:13:46.582Z,0.75
2022-11-08T06:16:15.196Z,0.88
2022-11-08T06:18:42.444Z,0.95
2022-11-08T06:21:12.648Z,0.75
2022-11-08T06:23:39.898Z,0.70
2022-11-08T06:26:06.499Z,0.82
2022-11-08T06:28:33.552Z,1.30
2022-11-08T06:31:01.557Z,1.17
2022-11-08T06:33:31.102Z,0.90
2022-11-08T06:35:57.658Z,0.82
2022-11-08T06:38:24.432Z,1.10
2022-11-08T06:40:50.958Z,0.95
2022-11-08T06:43:19.800Z,1.08
2022-11-08T06:45:46.967Z,0.98
2022-11-08T06:48:13.504Z,1.13
2022-11-08T06:50:41.655Z,1.10
2022-11-08T06:53:10.886Z,1.17
2022-11-08T06:55:37.677Z,1.05
2022-11-08T06:58:05.107Z,1.08
2022-11-08T07:00:34.762Z,1.02
2022-11-08T07:03:04.371Z,0.90
2022-11-08T07:05:35.124Z,0.95
2022-11-08T07:08:03.399Z,1.00
2022-11-08T07:10:31.914Z,1.38
2022-11-08T07:13:09.848Z,0.80
2022-11-08T07:15:36.974Z,2.05
2022-11-08T07:18:09.400Z,1.10
2022-11-08T07:20:36.179Z,1.33
2022-11-08T07:23:05.339Z,1.50
2022-11-08T07:25:35.019Z,1.20
2022-11-08T07:28:06.522Z,1.15
2022-11-08T07:30:35.407Z,1.00
2022-11-08T07:33:02.863Z,1.10
2022-11-08T07:35:29.795Z,1.75
2022-11-08T07:37:56.843Z,0.85
2022-11-08T07:40:23.898Z,1.05
2022-11-08T07:43:10.687Z,0.90
2022-11-08T07:45:37.176Z,1.05
2022-11-08T07:48:13.241Z,1.10
2022-11-08T07:50:43.255Z,1.15
2022-11-08T07:53:10.629Z,1.70
2022-11-08T07:55:38.421Z,1.05
2022-11-08T07:58:10.305Z,1.17
2022-11-08T08:00:38.863Z,1.08
2022-11-08T08:03:08.004Z,1.20
2022-11-08T08:05:40.421Z,1.13
2022-11-08T08:08:07.568Z,1.20
2022-11-08T08:10:36.189Z,0.93
2022-11-08T08:13:05.487Z,1.20
2022-11-08T08:15:32.753Z,1.45
2022-11-08T08:18:02.016Z,1.23
2022-11-08T08:20:29.637Z,1.55
2022-11-08T08:22:56.200Z,1.08
2022-11-08T08:25:22.707Z,1.10
2022-11-08T08:27:56.867Z,1.40
2022-11-08T08:30:24.507Z,1.00
2022-11-08T08:33:08.180Z,1.25
2022-11-08T08:35:38.968Z,1.00
2022-11-08T08:38:08.258Z,1.10
2022-11-08T08:40:41.943Z,1.58
2022-11-08T08:43:08.920Z,1.63
2022-11-08T08:45:36.659Z,1.20
2022-11-08T08:48:08.147Z,1.00
2022-11-08T08:50:37.415Z,1.13
2022-11-08T08:53:07.429Z,1.48
2022-11-08T08:55:39.334Z,1.30
2022-11-08T08:58:06.240Z,1.15
2022-11-08T09:03:23.152Z,1.52
2022-11-08T09:05:49.995Z,1.20
2022-11-08T09:08:16.948Z,0.90
2022-11-08T09:10:44.097Z,1.38
2022-11-08T09:13:11.299Z,1.17
2022-11-08T09:15:39.702Z,1.38
2022-11-08T09:18:07.239Z,1.48
2022-11-08T09:20:36.879Z,1.30
2022-11-08T09:23:06.756Z,1.30
2022-11-08T09:25:36.140Z,1.58
2022-11-08T09:28:03.357Z,1.38
2022-11-08T09:30:31.131Z,1.25
2022-11-08T09:33:02.128Z,1.40
2022-11-08T09:35:30.674Z,1.23
2022-11-08T09:37:58.541Z,1.92
2022-11-08T09:40:37.367Z,1.30
2022-11-08T09:43:18.759Z,1.25
2022-11-08T09:45:47.942Z,0.80
2022-11-08T09:48:26.801Z,1.20
2022-11-08T09:50:55.059Z,1.23
2022-11-08T09:53:37.888Z,1.38
2022-11-08T09:56:28.985Z,1.02
2022-11-08T09:59:13.040Z,1.20
2022-11-08T10:01:40.245Z,1.30
2022-11-08T10:04:16.439Z,1.15
2022-11-08T10:07:05.673Z,1.38
2022-11-08T10:09:54.919Z,1.60
2022-11-08T10:12:21.378Z,1.30
2022-11-08T10:14:54.114Z,2.00
2022-11-08T10:17:53.006Z,1.33
2022-11-08T10:20:45.784Z,1.17
2022-11-08T10:23:21.683Z,1.42
2022-11-08T10:25:54.525Z,1.27
2022-11-08T10:28:28.007Z,1.40
2022-11-08T10:30:55.400Z,1.50
2022-11-08T10:33:38.106Z,1.70
2022-11-08T10:36:13.573Z,1.20
2022-11-08T10:38:51.495Z,1.10
2022-11-08T10:41:54.294Z,1.30
2022-11-08T10:44:25.586Z,1.27
2022-11-08T10:47:00.242Z,1.35
2022-11-08T10:49:28.086Z,1.60
2022-11-08T10:51:57.687Z,1.48
2022-11-08T10:54:50.442Z,1.60
2022-11-08T10:57:24.782Z,0.90
2022-11-08T10:59:52.641Z,1.23
2022-11-08T11:02:22.088Z,1.70
2022-11-08T11:04:49.366Z,1.30
2022-11-08T11:07:30.710Z,1.40
2022-11-08T11:09:57.505Z,1.10
2022-11-08T11:12:24.161Z,1.33
2022-11-08T11:14:58.902Z,1.52
2022-11-08T11:17:35.495Z,1.25
2022-11-08T11:20:18.353Z,1.80
2022-11-08T11:22:46.491Z,2.10
2022-11-08T11:25:19.209Z,2.17
2022-11-08T11:27:57.772Z,1.02
2022-11-08T11:30:31.857Z,1.52
2022-11-08T11:33:21.521Z,1.45
2022-11-08T11:35:53.197Z,1.33
2022-11-08T11:38:42.038Z,1.00
2022-11-08T11:41:17.027Z,1.00
2022-11-08T11:44:20.805Z,1.10
2022-11-08T11:47:05.952Z,1.17
2022-11-08T11:49:35.807Z,1.10
2022-11-08T11:52:02.350Z,0.90
2022-11-08T11:54:32.051Z,1.20
2022-11-08T11:57:27.779Z,0.88
2022-11-08T12:00:13.535Z,1.15
2022-11-08T12:03:01.185Z,1.42
2022-11-08T12:05:59.678Z,1.00
2022-11-08T12:08:51.222Z,1.38
2022-11-08T12:11:39.236Z,2.70
2022-11-08T12:14:38.910Z,2.85
2022-11-08T12:17:36.820Z,0.98
2022-11-08T12:20:26.889Z,1.20
2022-11-08T12:23:00.009Z,1.15
2022-11-08T12:25:36.868Z,1.10
2022-11-08T12:28:09.247Z,1.23
2022-11-08T12:30:44.781Z,1.00
2022-11-08T12:33:38.342Z,0.85
2022-11-08T12:36:44.596Z,1.00
2022-11-08T12:39:11.111Z,0.93
2022-11-08T12:42:07.937Z,1.15
2022-11-08T12:45:05.580Z,1.13
2022-11-08T12:47:43.821Z,1.65
2022-11-08T12:50:17.584Z,8.30
2022-11-08T12:53:05.489Z,5.70
2022-11-08T12:55:44.461Z,2.03
2022-11-08T12:58:36.580Z,4.07
2022-11-08T13:01:11.633Z,2.30
2022-11-08T13:03:46.893Z,2.25
2022-11-08T13:06:39.717Z,1.80
2022-11-08T13:09:41.726Z,1.83
2022-11-08T13:12:34.726Z,2.22
2022-11-08T13:15:06.553Z,2.22
2022-11-08T13:17:36.711Z,2.22
2022-11-08T13:20:40.333Z,2.47
2022-11-08T13:23:12.208Z,2.90
2022-11-08T13:25:42.811Z,2.35
2022-11-08T13:28:37.457Z,2.90
2022-11-08T13:31:34.627Z,2.70
2022-11-08T13:34:37.395Z,2.10
2022-11-08T13:37:27.300Z,2.03
2022-11-08T13:40:09.129Z,1.90
2022-11-08T13:42:36.483Z,2.90
2022-11-08T13:45:25.488Z,2.10
2022-11-08T13:47:55.567Z,2.40
2022-11-08T13:50:28.495Z,4.55
2022-11-08T13:53:20.077Z,4.03
2022-11-08T13:55:49.449Z,3.00
2022-11-08T13:58:54.416Z,3.33
2022-11-08T14:01:20.954Z,3.60
2022-11-08T14:03:47.579Z,3.90
2022-11-08T14:06:29.896Z,3.83
2022-11-08T14:09:33.444Z,2.17
2022-11-08T14:12:21.855Z,2.33
2022-11-08T14:15:00.468Z,2.42
2022-11-08T14:17:46.120Z,2.72
2022-11-08T14:20:41.066Z,2.90
2022-11-08T14:23:20.246Z,6.32
2022-11-08T14:26:00.218Z,3.47
2022-11-08T14:28:32.947Z,2.72
2022-11-08T14:31:01.204Z,4.45
2022-11-08T14:33:29.897Z,1.48
2022-11-08T14:36:04.272Z,6.00
2022-11-08T14:38:35.338Z,3.67
2022-11-08T14:41:05.036Z,4.15
2022-11-08T14:43:41.359Z,4.82
2022-11-08T14:46:26.344Z,7.13
2022-11-08T14:48:54.725Z,4.65
2022-11-08T14:51:21.359Z,4.82
2022-11-08T14:53:53.401Z,3.95
2022-11-08T14:56:22.967Z,3.70
2022-11-08T14:58:51.703Z,3.22
2022-11-08T15:01:24.172Z,3.15
2022-11-08T15:04:00.019Z,3.40
2022-11-08T15:06:32.512Z,3.40
2022-11-08T15:09:00.361Z,3.20
2022-11-08T15:11:40.202Z,3.35
2022-11-08T15:14:17.219Z,3.83
2022-11-08T15:16:46.779Z,3.53
2022-11-08T15:19:31.552Z,3.50
2022-11-08T15:22:00.242Z,3.80
2022-11-08T15:24:39.480Z,3.35
2022-11-08T15:27:12.234Z,3.47
2022-11-08T15:29:53.724Z,3.78
2022-11-08T15:32:22.066Z,3.35
2022-11-08T15:34:52.598Z,3.40
2022-11-08T15:37:39.341Z,3.30
2022-11-08T15:40:16.065Z,1.95
2022-11-08T15:42:50.513Z,0.82
2022-11-08T15:45:17.352Z,2.30
2022-11-08T15:47:43.888Z,1.65
2022-11-08T15:50:33.181Z,3.38
2022-11-08T15:53:01.973Z,1.20
2022-11-08T15:55:40.079Z,1.95
2022-11-08T15:58:16.118Z,3.22
2022-11-08T16:00:47.107Z,0.90
2022-11-08T16:03:13.700Z,1.23
2022-11-08T16:05:40.207Z,0.90
2022-11-08T16:08:08.388Z,1.52
2022-11-08T16:10:44.887Z,1.10
2022-11-08T16:13:28.183Z,3.17
2022-11-08T16:15:55.324Z,0.90
2022-11-08T16:18:22.191Z,2.13
2022-11-08T16:20:49.017Z,2.38
2022-11-08T16:23:16.887Z,2.03
2022-11-08T16:25:49.475Z,1.77
2022-11-08T16:28:27.364Z,2.05
2022-11-08T16:30:54.055Z,1.92
2022-11-08T16:33:26.583Z,1.80
2022-11-08T16:36:01.801Z,2.63
2022-11-08T16:38:33.763Z,0.90
2022-11-08T16:41:00.412Z,0.95
2022-11-08T16:43:27.006Z,0.85
2022-11-08T16:46:09.678Z,1.50
2022-11-08T16:48:39.989Z,0.70
2022-11-08T16:51:12.147Z,0.93
2022-11-08T16:53:41.458Z,1.77
2022-11-08T16:56:10.026Z,1.17
2022-11-08T16:58:40.321Z,1.20
2022-11-08T17:01:10.589Z,0.80
2022-11-08T17:03:39.201Z,0.90
2022-11-08T17:06:06.183Z,1.20
2022-11-08T17:08:32.714Z,0.80
2022-11-08T17:10:59.255Z,1.20
2022-11-08T17:13:25.763Z,1.17
2022-11-08T17:15:55.043Z,0.95
2022-11-08T17:18:21.886Z,1.67
2022-11-08T17:20:48.818Z,1.05
2022-11-08T17:23:16.467Z,1.10
2022-11-08T17:25:44.486Z,1.60
2022-11-08T17:28:12.296Z,1.02
2022-11-08T17:30:44.519Z,1.05
2022-11-08T17:33:12.972Z,1.00
2022-11-08T17:35:44.283Z,1.02
2022-11-08T17:38:11.527Z,1.20
2022-11-08T17:40:42.390Z,1.10
2022-11-08T17:43:09.853Z,1.23
2022-11-08T17:45:36.358Z,0.90
2022-11-08T17:48:02.871Z,0.90
2022-11-08T17:50:29.369Z,1.20
2022-11-08T17:52:58.380Z,1.30
2022-11-08T17:55:24.877Z,0.98
2022-11-08T17:57:51.358Z,0.88
2022-11-08T18:00:18.132Z,0.90
2022-11-08T18:02:45.888Z,1.08
2022-11-08T18:05:12.478Z,1.10
2022-11-08T18:07:41.733Z,1.13
2022-11-08T18:10:11.344Z,0.80
2022-11-08T18:12:38.927Z,1.20
2022-11-08T18:15:06.255Z,1.30
2022-11-08T18:17:32.790Z,1.00
2022-11-08T18:19:59.317Z,0.85
2022-11-08T18:22:25.919Z,1.27
2022-11-08T18:24:52.551Z,1.20
2022-11-08T18:27:19.100Z,0.98
2022-11-08T18:29:45.613Z,1.20
2022-11-08T18:32:12.141Z,1.35
2022-11-08T18:34:41.819Z,1.48
2022-11-08T18:37:10.515Z,1.10
2022-11-08T18:39:37.067Z,1.15
2022-11-08T18:42:03.766Z,0.90
2022-11-08T18:44:30.242Z,1.50
2022-11-08T18:46:56.812Z,1.60
2022-11-08T18:49:23.381Z,1.08
2022-11-08T18:51:52.164Z,1.05
2022-11-08T18:54:20.041Z,1.08
2022-11-08T18:56:46.535Z,1.40
2022-11-08T18:59:13.278Z,1.25
2022-11-08T19:01:43.036Z,1.10
2022-11-08T19:04:12.010Z,1.25
2022-11-08T19:06:38.643Z,0.90
2022-11-08T19:09:05.293Z,1.27
2022-11-08T19:11:32.158Z,1.08
2022-11-08T19:13:58.991Z,1.30
2022-11-08T19:16:25.957Z,1.30
2022-11-08T19:18:52.898Z,1.27
2022-11-08T19:21:24.727Z,1.10
2022-11-08T19:23:52.623Z,1.25
2022-11-08T19:26:22.172Z,1.10
2022-11-08T19:28:54.334Z,1.35
2022-11-08T19:31:24.321Z,1.40
2022-11-08T19:33:52.579Z,1.50
2022-11-08T19:36:22.130Z,1.10
2022-11-08T19:38:49.561Z,1.20
2022-11-08T19:41:19.591Z,1.30
2022-11-08T19:43:47.096Z,1.40
2022-11-08T19:46:17.071Z,1.30
2022-11-08T19:48:45.381Z,1.15
2022-11-08T19:51:23.552Z,1.33
2022-11-08T19:53:53.888Z,1.10
2022-11-08T19:56:32.866Z,1.20
2022-11-08T19:59:05.692Z,1.83
2022-11-08T20:01:36.320Z,1.20
2022-11-08T20:04:05.094Z,1.15
2022-11-08T20:06:32.437Z,1.40
2022-11-08T20:08:59.479Z,1.25
2022-11-08T20:11:29.212Z,1.20
2022-11-08T20:14:00.041Z,1.17
2022-11-08T20:16:32.492Z,1.35
2022-11-08T20:19:09.161Z,1.20
2022-11-08T20:21:38.819Z,1.40
2022-11-08T20:24:05.689Z,1.33
2022-11-08T20:26:37.413Z,1.20
2022-11-08T20:29:04.509Z,1.58
2022-11-08T20:31:32.851Z,1.42
2022-11-08T20:33:59.788Z,0.93
2022-11-08T20:36:27.247Z,1.65
2022-11-08T20:39:03.658Z,1.15
2022-11-08T20:41:34.389Z,1.10
2022-11-08T20:44:00.917Z,1.20
2022-11-08T20:46:27.802Z,1.33
2022-11-08T20:49:00.308Z,1.48
2022-11-08T20:51:28.425Z,1.30
2022-11-08T20:53:55.968Z,1.70
2022-11-08T20:56:23.492Z,1.33
2022-11-08T20:58:53.528Z,1.42
2022-11-08T21:01:22.334Z,1.17
2022-11-08T21:03:49.790Z,1.20
2022-11-08T21:06:20.429Z,1.20
2022-11-08T21:09:13.273Z,1.27
2022-11-08T21:11:36.301Z,1.20
2022-11-08T21:14:04.593Z,1.40
2022-11-08T21:16:46.887Z,1.50
2022-11-08T21:19:18.943Z,1.40
2022-11-08T21:21:47.261Z,1.58
2022-11-08T21:24:14.041Z,1.27
2022-11-08T21:26:42.651Z,1.10
2022-11-08T21:29:09.128Z,1.30
2022-11-08T21:31:35.851Z,1.30
2022-11-08T21:34:02.353Z,1.17
2022-11-08T21:36:29.231Z,1.45
2022-11-08T21:38:56.055Z,1.45
2022-11-08T21:41:22.636Z,1.35
2022-11-08T21:43:49.248Z,1.30
2022-11-08T21:46:26.511Z,1.00
2022-11-08T21:48:58.538Z,1.33
2022-11-08T21:51:25.853Z,0.90
2022-11-08T21:53:55.488Z,1.25
2022-11-08T21:56:24.525Z,1.30
2022-11-08T21:58:51.037Z,1.00
2022-11-08T22:01:18.220Z,1.20
2022-11-08T22:03:47.633Z,0.88
2022-11-08T22:06:17.197Z,1.30
2022-11-08T22:08:47.108Z,1.15
2022-11-08T22:11:19.256Z,1.23
2022-11-08T22:13:48.921Z,1.40
2022-11-08T22:16:16.107Z,1.27
2022-11-08T22:21:38.899Z,1.65
2022-11-08T22:24:06.326Z,1.70
2022-11-08T22:26:33.063Z,1.00
2022-11-08T22:28:59.808Z,1.20
2022-11-08T22:31:26.338Z,1.20
2022-11-08T22:33:52.840Z,1.05
2022-11-08T22:36:19.410Z,0.80
2022-11-08T22:38:48.989Z,0.90
2022-11-08T22:41:20.338Z,1.10
2022-11-08T22:43:50.069Z,0.77
2022-11-08T22:46:18.895Z,0.82
2022-11-08T22:48:48.512Z,0.55
2022-11-08T22:51:17.951Z,1.00
2022-11-08T22:53:44.491Z,0.85
2022-11-08T22:56:11.928Z,0.82
2022-11-08T22:58:39.508Z,1.02
2022-11-08T23:01:07.372Z,0.75
2022-11-08T23:03:33.903Z,1.00
2022-11-08T23:06:00.378Z,0.82
2022-11-08T23:08:27.275Z,0.85
2022-11-08T23:11:12.835Z,1.15
2022-11-08T23:13:58.720Z,0.90
2022-11-08T23:16:37.829Z,0.80
2022-11-08T23:19:25.758Z,0.80
2022-11-08T23:22:11.649Z,0.80
2022-11-08T23:24:38.579Z,1.00
2022-11-08T23:27:24.887Z,0.85
2022-11-08T23:30:10.438Z,1.00
2022-11-08T23:32:42.611Z,0.80
2022-11-08T23:35:09.387Z,0.80
2022-11-08T23:37:35.898Z,0.85
2022-11-08T23:40:20.745Z,1.00
2022-11-08T23:43:05.670Z,0.63
2022-11-08T23:45:32.202Z,1.10
2022-11-08T23:47:58.802Z,0.82
2022-11-08T23:50:25.322Z,0.70
2022-11-08T23:52:51.820Z,0.82
2022-11-08T23:55:20.712Z,0.90
2022-11-08T23:57:47.883Z,0.90
